»·PEaware :: SKY180 KABQ-KSKX

SKY180 :: KABQ-KSKX

FLIGHT INFORMATION

Flight Status: Arrived
Operator:
Sky High Charters
More flights by this operator :: More flights under this callsign
Pilot: James J. (11409)
Aircraft: BEECH AIRCRAFT A90-E90 KING AIR
(BE9L)
More flights by this aircraft type
Origin: KABQ Albuquerque Intl Sunport
United States
Destination: KSKX Taos Regl
United States
More flights between these airports :: More routes between these airports
Route: ABQ V263 SAF V83 TAS
File this flight plan on PilotEdge
Remarks: SkyHigh No. 2
Altitude:
(Current/Filed)
11,000ft
Speed:
(Current/Filed)
235kts
Departed: 07-Sep-19 12:02 PM
Arrived: 07-Sep-19 12:41 PM
Distance/Time
Traveled:
97nm/0:39
Distance/Time
To Go:
Arrived

Flight Plot

Page will automatically refresh every two minutes.

Flight plan parsing failed; only flown route is shown


Map Options




Map Legend


Flown Route
Filed Route
Departure Airport
Arrival Airport
Navaid (VOR, NDB)
Fix

Horizontal Profiles

Position Reports

Time Latitude Longitude Heading Altitude Ground
Speed
07-Sep-19 11:37 35.038967 -106.619538 58 5306ft 0kts
07-Sep-19 11:38 35.038967 -106.619538 58 5306ft 0kts
07-Sep-19 11:39 35.038967 -106.619538 58 5306ft 0kts
07-Sep-19 11:40 35.038967 -106.619538 58 5306ft 0kts
07-Sep-19 11:41 35.038967 -106.619538 58 5306ft 0kts
07-Sep-19 11:42 35.038967 -106.619538 58 5306ft 0kts
07-Sep-19 11:42 35.038967 -106.619538 58 5306ft 0kts
07-Sep-19 11:44 35.038967 -106.619538 58 5306ft 0kts
07-Sep-19 11:45 35.038967 -106.619538 58 5306ft 0kts
07-Sep-19 11:45 35.038967 -106.619538 58 5306ft 0kts
07-Sep-19 11:46 35.038967 -106.619538 58 5306ft 0kts
07-Sep-19 11:48 35.038967 -106.619538 58 5306ft 0kts
07-Sep-19 11:48 35.038967 -106.619538 58 5306ft 0kts
07-Sep-19 11:50 35.038967 -106.619538 58 5306ft 0kts
07-Sep-19 11:50 35.038967 -106.619538 58 5306ft 0kts
07-Sep-19 11:51 35.038967 -106.619538 58 5306ft 0kts
07-Sep-19 11:52 35.038967 -106.619538 58 5306ft 0kts
07-Sep-19 11:53 35.038967 -106.619538 58 5306ft 0kts
07-Sep-19 11:54 35.038967 -106.619538 58 5306ft 0kts
07-Sep-19 11:55 35.038967 -106.619538 58 5306ft 0kts
07-Sep-19 11:56 35.038985 -106.619508 47 5306ft 2kts
07-Sep-19 11:57 35.038958 -106.615545 128 5310ft 22kts
07-Sep-19 11:58 35.034244 -106.608377 131 5303ft 12kts
07-Sep-19 11:59 35.032761 -106.605887 77 5294ft 0kts
07-Sep-19 12:00 35.032771 -106.605846 71 5294ft 3kts
07-Sep-19 12:01 35.036347 -106.609922 308 5311ft 85kts
07-Sep-19 12:02 35.056685 -106.645664 282 6122ft 139kts
07-Sep-19 12:03 35.066503 -106.692613 283 7223ft 145kts
07-Sep-19 12:04 35.095999 -106.727737 336 7955ft 162kts
07-Sep-19 12:05 35.139446 -106.746178 338 8684ft 168kts
07-Sep-19 12:06 35.185144 -106.743753 18 9367ft 177kts
07-Sep-19 12:07 35.232491 -106.722332 14 9939ft 182kts
07-Sep-19 12:08 35.281880 -106.704428 15 10470ft 187kts
07-Sep-19 12:09 35.332033 -106.685682 16 10975ft 190kts
07-Sep-19 12:10 35.385055 -106.665880 15 11009ft 203kts
07-Sep-19 12:11 35.438213 -106.646153 15 11014ft 197kts
07-Sep-19 12:12 35.490189 -106.626695 15 11021ft 194kts
07-Sep-19 12:13 35.524279 -106.587091 88 11033ft 189kts
07-Sep-19 12:14 35.526586 -106.522406 89 11032ft 189kts
07-Sep-19 12:15 35.528684 -106.457832 89 11038ft 189kts
07-Sep-19 12:16 35.530724 -106.393297 90 11043ft 188kts
07-Sep-19 12:17 35.532797 -106.326261 90 11050ft 205kts
07-Sep-19 12:18 35.534965 -106.254950 90 11049ft 212kts
07-Sep-19 12:19 35.537139 -106.182100 90 11048ft 214kts
07-Sep-19 12:20 35.539288 -106.108616 90 11046ft 215kts
07-Sep-19 12:21 35.571430 -106.060399 5 11048ft 220kts
07-Sep-19 12:22 35.632209 -106.051496 6 11046ft 221kts
07-Sep-19 12:23 35.693553 -106.042482 6 11047ft 222kts
07-Sep-19 12:24 35.754966 -106.033443 6 11061ft 222kts
07-Sep-19 12:25 35.816439 -106.024394 6 10959ft 226kts
07-Sep-19 12:26 35.878726 -106.015184 6 10963ft 224kts
07-Sep-19 12:27 35.940335 -106.006083 6 10967ft 223kts
07-Sep-19 12:28 36.002061 -105.996940 6 10973ft 223kts
07-Sep-19 12:29 36.063715 -105.987798 6 10974ft 223kts
07-Sep-19 12:30 36.125401 -105.978626 6 10971ft 223kts
07-Sep-19 12:31 36.186804 -105.969525 6 10976ft 222kts
07-Sep-19 12:32 36.248372 -105.960325 6 10994ft 222kts
07-Sep-19 12:33 36.297203 -105.936777 44 10943ft 171kts
07-Sep-19 12:34 36.328835 -105.900886 45 10599ft 152kts
07-Sep-19 12:35 36.355969 -105.860190 58 10218ft 153kts
07-Sep-19 12:36 36.379954 -105.816190 57 9756ft 156kts
07-Sep-19 12:37 36.402808 -105.774259 55 9067ft 127kts
07-Sep-19 12:38 36.423865 -105.735564 55 8208ft 135kts
07-Sep-19 12:39 36.444976 -105.696548 54 7408ft 132kts
07-Sep-19 12:40 36.457840 -105.673400 344 7091ft 14kts
07-Sep-19 12:41 36.459793 -105.671221 342 7091ft 4kts
07-Sep-19 12:42 36.459810 -105.671929 234 7091ft 0kts
07-Sep-19 12:43 36.459810 -105.671929 234 7091ft 0kts
07-Sep-19 12:44 36.459810 -105.671929 234 7091ft 0kts
07-Sep-19 12:45 36.459810 -105.671929 234 7091ft 0kts
07-Sep-19 12:46 36.459810 -105.671929 234 7091ft 0kts
07-Sep-19 12:47 36.459810 -105.671929 234 7091ft 0kts
07-Sep-19 12:48 36.459810 -105.671929 234 7091ft 0kts
07-Sep-19 12:49 36.459810 -105.671929 234 7091ft 0kts
07-Sep-19 12:50 36.459810 -105.671929 234 7091ft 0kts
07-Sep-19 12:51 36.459810 -105.671929 234 7091ft 0kts
07-Sep-19 12:52 36.459810 -105.671929 234 7091ft 0kts
07-Sep-19 12:53 36.459810 -105.671929 234 7091ft 0kts
07-Sep-19 12:54 36.459810 -105.671929 234 7091ft 0kts

Navigation Log

Ident Type
Flight plan parsing failed, navigation log unavailable